General Rodolfo Sánchez Taboada International Airport

Airport
ICAO code: 
MMML
IATA Code: 
MXL
Summary
ICAO Region: 
CARSAM
Territory: 
Location: 
Mesa Arenosa de Andrade, Baja California
Serving: 
Mexicali
Elevation: 
74 ft
Coordinates: 
Aerial View: 
32° 37' 50.282" N, 115° 14' 29.893" W
Metar
Observation
MMML 260040Z 13009KT 10SM SKC 38/M01 A2971
Station
Mexicali International Airport
Date/Time
2022-05-26 00:40:00
Wind direction
130°
Wind speed
09 kts
Lowest cloud amount
n/a
Temperature
38°C
Dew point
-1°C
Humidity
8%
Weather condition
n/a

General Rodolfo Sánchez Taboada International Airport Is an international airport located outside Mexicali, Baja California, Mexico, near the U.S.-Mexico border.

Climatology

Humid Subtropical climate (Köppen climate classification Cfa)

Runways

Designator Length Width Surface Rops
10/28 2600 45 CON Yes/Yes
Airport map: 
Aerial View: 

SKYbrary Partners:

Safety knowledge contributed by: